createdAt,value
2023-01-10T00:01:31.865Z,6.2
2023-01-10T00:04:31.879Z,6.2
2023-01-10T00:07:31.863Z,6.2
2023-01-10T00:10:31.889Z,6.2
2023-01-10T00:13:31.856Z,6.2
2023-01-10T00:16:31.887Z,6.2
2023-01-10T00:19:31.911Z,6.2
2023-01-10T00:22:31.871Z,6.2
2023-01-10T00:25:31.867Z,6.2
2023-01-10T00:28:31.871Z,6.2
2023-01-10T00:31:31.945Z,6.2
2023-01-10T00:34:31.897Z,6.2
2023-01-10T00:37:31.874Z,6.2
2023-01-10T00:40:31.872Z,6.2
2023-01-10T00:43:31.901Z,6.2
2023-01-10T00:46:31.973Z,6.2
2023-01-10T00:49:31.875Z,6.2
2023-01-10T00:52:31.901Z,6.3
2023-01-10T00:55:31.876Z,6.3
2023-01-10T00:58:31.880Z,6.3
2023-01-10T01:01:32.080Z,6.2
2023-01-10T01:04:31.883Z,6.2
2023-01-10T01:07:31.877Z,6.2
2023-01-10T01:10:31.903Z,6.2
2023-01-10T01:13:31.883Z,6.3
2023-01-10T01:16:31.888Z,6.3
2023-01-10T01:19:31.878Z,6.2
2023-01-10T01:22:31.886Z,6.2
2023-01-10T01:25:31.886Z,6.3
2023-01-10T01:28:31.920Z,6.3
2023-01-10T01:31:31.897Z,6.2
2023-01-10T01:34:31.893Z,6.2
2023-01-10T01:37:31.899Z,6.2
2023-01-10T01:40:31.891Z,6.2
2023-01-10T01:43:31.897Z,6.3
2023-01-10T01:46:31.966Z,6.2
2023-01-10T01:49:31.898Z,6.2
2023-01-10T01:52:31.896Z,6.2
2023-01-10T01:55:31.898Z,6.3
2023-01-10T01:58:31.903Z,6.2
2023-01-10T02:01:31.979Z,6.3
2023-01-10T02:04:31.938Z,6.3
2023-01-10T02:07:31.907Z,6.2
2023-01-10T02:10:31.903Z,6.2
2023-01-10T02:13:31.915Z,6.2
2023-01-10T02:16:31.915Z,6.2
2023-01-10T02:19:31.915Z,6.2
2023-01-10T02:22:31.945Z,6.2
2023-01-10T02:25:31.911Z,6.2
2023-01-10T02:28:31.924Z,6.2
2023-01-10T02:31:31.916Z,6.2
2023-01-10T02:34:31.921Z,6.2
2023-01-10T02:37:31.917Z,6.2
2023-01-10T02:40:31.943Z,6.2
2023-01-10T02:43:31.924Z,6.2
2023-01-10T02:46:31.920Z,6.2
2023-01-10T02:49:31.927Z,6.2
2023-01-10T02:52:31.924Z,6.2
2023-01-10T02:55:31.920Z,6.2
2023-01-10T02:58:31.950Z,6.1
2023-01-10T03:01:32.032Z,6.1
2023-01-10T03:04:31.963Z,6
2023-01-10T03:07:31.926Z,6
2023-01-10T03:10:31.925Z,6
2023-01-10T03:13:31.931Z,6
2023-01-10T03:16:31.949Z,6
2023-01-10T03:19:31.929Z,6
2023-01-10T03:22:31.939Z,6
2023-01-10T03:25:31.927Z,6
2023-01-10T03:28:31.935Z,6
2023-01-10T03:31:31.938Z,6
2023-01-10T03:34:31.981Z,5.9
2023-01-10T03:37:31.933Z,5.9
2023-01-10T03:40:31.936Z,5.9
2023-01-10T03:43:31.935Z,5.9
2023-01-10T03:46:32.000Z,5.9
2023-01-10T03:49:31.943Z,6
2023-01-10T03:52:31.966Z,6
2023-01-10T03:55:31.948Z,5.9
2023-01-10T03:58:31.948Z,6
2023-01-10T04:01:32.045Z,6
2023-01-10T04:04:31.973Z,6
2023-01-10T04:07:31.952Z,6
2023-01-10T04:10:31.980Z,6
2023-01-10T04:13:31.959Z,6
2023-01-10T04:16:32.036Z,6
2023-01-10T04:19:31.962Z,6
2023-01-10T04:22:31.974Z,6
2023-01-10T04:25:31.960Z,6
2023-01-10T04:28:31.990Z,6
2023-01-10T04:31:31.997Z,6
2023-01-10T04:34:31.964Z,6
2023-01-10T04:37:31.969Z,6
2023-01-10T04:40:31.965Z,6
2023-01-10T04:43:31.972Z,5.9
2023-01-10T04:46:31.995Z,5.9
2023-01-10T04:49:31.975Z,5.9
2023-01-10T04:52:31.973Z,5.8
2023-01-10T04:55:31.972Z,5.8
2023-01-10T04:58:31.973Z,5.8
2023-01-10T05:01:32.037Z,5.8
2023-01-10T05:04:32.000Z,5.8
2023-01-10T05:07:31.977Z,5.8
2023-01-10T05:10:31.982Z,5.8
2023-01-10T05:13:31.984Z,5.9
2023-01-10T05:16:32.065Z,5.9
2023-01-10T05:19:31.989Z,5.9
2023-01-10T05:22:32.018Z,5.9
2023-01-10T05:25:31.987Z,5.9
2023-01-10T05:28:32.094Z,5.9
2023-01-10T05:31:32.085Z,5.9
2023-01-10T05:34:31.997Z,5.9
2023-01-10T05:37:32.000Z,5.9
2023-01-10T05:40:32.038Z,5.9
2023-01-10T05:43:31.996Z,5.9
2023-01-10T05:46:32.013Z,5.9
2023-01-10T05:49:34.076Z,6
2023-01-10T05:52:32.009Z,6
2023-01-10T05:55:32.072Z,6
2023-01-10T05:58:32.049Z,6
2023-01-10T06:01:32.060Z,6
2023-01-10T06:04:32.016Z,5.9
2023-01-10T06:07:32.015Z,5.8
2023-01-10T06:10:32.019Z,5.8
2023-01-10T06:13:32.017Z,5.8
2023-01-10T06:16:32.038Z,5.8
2023-01-10T06:19:32.029Z,5.8
2023-01-10T06:22:32.027Z,5.8
2023-01-10T06:25:32.030Z,5.8
2023-01-10T06:28:32.032Z,5.8
2023-01-10T06:31:32.154Z,5.8
2023-01-10T06:34:32.060Z,5.8
2023-01-10T06:37:32.041Z,5.8
2023-01-10T06:40:32.043Z,5.8
2023-01-10T06:43:32.043Z,5.7
2023-01-10T06:46:32.041Z,5.6
2023-01-10T06:49:32.041Z,5.5
2023-01-10T06:52:32.075Z,5.5
2023-01-10T06:55:32.062Z,5.4
2023-01-10T06:58:32.058Z,5.3
2023-01-10T07:01:32.185Z,5.2
2023-01-10T07:04:32.062Z,5.2
2023-01-10T07:07:32.062Z,5
2023-01-10T07:10:32.095Z,5
2023-01-10T07:13:32.067Z,4.9
2023-01-10T07:16:32.123Z,4.9
2023-01-10T07:19:32.071Z,4.9
2023-01-10T07:22:32.076Z,4.9
2023-01-10T07:25:32.074Z,4.8
2023-01-10T07:28:32.101Z,4.9
2023-01-10T07:31:32.103Z,4.9
2023-01-10T07:34:32.080Z,4.9
2023-01-10T07:37:32.081Z,4.9
2023-01-10T07:40:32.084Z,5
2023-01-10T07:43:32.147Z,5.1
2023-01-10T07:46:32.173Z,5.1
2023-01-10T07:49:32.099Z,5.2
2023-01-10T07:52:32.095Z,5.3
2023-01-10T07:55:32.099Z,5.3
2023-01-10T07:58:32.102Z,5.4
2023-01-10T08:01:32.170Z,5.5
2023-01-10T08:04:32.135Z,5.5
2023-01-10T08:07:32.120Z,5.6
2023-01-10T08:10:32.119Z,5.6
2023-01-10T08:13:32.120Z,5.6
2023-01-10T08:16:32.254Z,5.7
2023-01-10T08:19:32.136Z,5.7
2023-01-10T08:22:32.195Z,5.7
2023-01-10T08:25:32.143Z,5.7
2023-01-10T08:28:32.148Z,5.8
2023-01-10T08:31:32.230Z,5.8
2023-01-10T08:34:32.146Z,5.9
2023-01-10T08:37:32.149Z,6
2023-01-10T08:40:32.177Z,6.3
2023-01-10T08:43:32.152Z,6.4
2023-01-10T08:46:32.176Z,6.4
2023-01-10T08:49:32.154Z,6.4
2023-01-10T08:52:32.165Z,6.4
2023-01-10T08:55:32.163Z,6.4
2023-01-10T08:58:32.192Z,6.4
2023-01-10T09:01:32.276Z,6.4
2023-01-10T09:04:33.106Z,6.4
2023-01-10T09:07:32.172Z,6.3
2023-01-10T09:10:32.168Z,6.4
2023-01-10T09:13:32.194Z,6.4
2023-01-10T09:16:32.204Z,6.4
2023-01-10T09:19:32.180Z,6.4
2023-01-10T09:22:32.181Z,6.4
2023-01-10T09:25:32.190Z,6.4
2023-01-10T09:28:32.186Z,6.5
2023-01-10T09:31:32.234Z,6.5
2023-01-10T09:34:32.220Z,6.5
2023-01-10T09:37:32.197Z,6.5
2023-01-10T09:40:32.198Z,6.5
2023-01-10T09:43:32.198Z,6.8
2023-01-10T09:46:32.231Z,7
2023-01-10T09:49:32.206Z,7.1
2023-01-10T09:52:32.226Z,7.2
2023-01-10T09:55:32.514Z,7.4
2023-01-10T09:58:32.220Z,7.6
2023-01-10T10:01:32.287Z,7.7
2023-01-10T10:04:32.296Z,7.7
2023-01-10T10:07:32.224Z,7.7
2023-01-10T10:10:32.261Z,7.6
2023-01-10T10:13:32.234Z,7.5
2023-01-10T10:16:32.266Z,7.5
2023-01-10T10:19:32.239Z,7.4
2023-01-10T10:22:32.241Z,7.4
2023-01-10T10:25:32.247Z,7.4
2023-01-10T10:28:32.272Z,7.3
2023-01-10T10:31:32.289Z,7.3
2023-01-10T10:34:32.259Z,7.4
2023-01-10T10:37:32.260Z,7.3
2023-01-10T10:40:32.266Z,7.3
2023-01-10T10:43:32.265Z,7.3
2023-01-10T10:46:32.356Z,7.3
2023-01-10T10:49:32.275Z,7.4
2023-01-10T10:52:32.337Z,7.4
2023-01-10T10:55:32.289Z,7.4
2023-01-10T10:58:32.289Z,7.4
2023-01-10T11:01:32.468Z,7.4
2023-01-10T11:04:32.331Z,7.5
2023-01-10T11:07:32.296Z,7.5
2023-01-10T11:10:32.302Z,7.5
2023-01-10T11:13:32.316Z,7.5
2023-01-10T11:16:32.329Z,7.5
2023-01-10T11:19:32.312Z,7.5
2023-01-10T11:22:32.340Z,7.6
2023-01-10T11:25:32.321Z,7.6
2023-01-10T11:28:32.329Z,7.6
2023-01-10T11:31:32.451Z,7.7
2023-01-10T11:34:32.345Z,7.7
2023-01-10T11:37:32.378Z,7.7
2023-01-10T11:40:32.450Z,7.7
2023-01-10T11:43:32.352Z,7.7
2023-01-10T11:46:32.354Z,7.8
2023-01-10T11:49:32.368Z,7.9
2023-01-10T11:52:32.388Z,7.8
2023-01-10T11:55:32.423Z,7.8
2023-01-10T11:58:32.401Z,7.7
2023-01-10T12:01:32.455Z,7.8
2023-01-10T12:04:32.384Z,7.8
2023-01-10T12:07:32.387Z,7.8
2023-01-10T12:10:32.395Z,7.8
2023-01-10T12:13:32.403Z,7.7
2023-01-10T12:16:32.484Z,7.7
2023-01-10T12:19:32.421Z,7.6
2023-01-10T12:22:32.422Z,7.6
2023-01-10T12:25:32.432Z,7.6
2023-01-10T12:28:32.429Z,7.6
2023-01-10T12:31:32.431Z,7.6
2023-01-10T12:34:32.471Z,7.6
2023-01-10T12:37:32.448Z,7.6
2023-01-10T12:40:32.446Z,7.7
2023-01-10T12:43:32.455Z,7.9
2023-01-10T12:47:00.301Z,8
2023-01-10T12:49:32.465Z,8.1
2023-01-10T12:52:32.511Z,8
2023-01-10T12:55:32.479Z,8
2023-01-10T12:58:32.484Z,7.9
2023-01-10T13:01:32.575Z,7.9
2023-01-10T13:04:32.506Z,7.9
2023-01-10T13:07:32.497Z,7.9
2023-01-10T13:10:32.527Z,7.8
2023-01-10T13:13:32.511Z,7.7
2023-01-10T13:16:32.519Z,7.7
2023-01-10T13:19:32.514Z,7.7
2023-01-10T13:22:32.522Z,7.6
2023-01-10T13:25:32.531Z,7.6
2023-01-10T13:28:32.559Z,7.6
2023-01-10T13:31:32.543Z,7.6
2023-01-10T13:34:32.549Z,7.6
2023-01-10T13:37:32.570Z,7.6
2023-01-10T13:40:32.558Z,7.6
2023-01-10T13:43:32.565Z,7.6
2023-01-10T13:46:32.622Z,7.7
2023-01-10T13:49:32.573Z,7.8
2023-01-10T13:52:32.580Z,7.8
2023-01-10T13:55:32.580Z,7.8
2023-01-10T13:58:32.587Z,7.8
2023-01-10T14:01:32.762Z,7.9
2023-01-10T14:04:32.699Z,7.8
2023-01-10T14:07:32.612Z,7.8
2023-01-10T14:10:32.627Z,7.8
2023-01-10T14:13:32.632Z,7.7
2023-01-10T14:16:32.642Z,7.7
2023-01-10T14:19:32.656Z,7.6
2023-01-10T14:22:32.672Z,7.6
2023-01-10T14:25:32.653Z,7.6
2023-01-10T14:28:32.660Z,7.6
2023-01-10T14:31:32.687Z,7.5
2023-01-10T14:34:32.675Z,7.5
2023-01-10T14:37:32.683Z,7.5
2023-01-10T14:40:32.728Z,7.4
2023-01-10T14:43:32.688Z,7.3
2023-01-10T14:46:32.747Z,7.2
2023-01-10T14:49:32.722Z,7.2
2023-01-10T14:52:32.712Z,7.1
2023-01-10T14:55:32.737Z,7.1
2023-01-10T14:58:32.752Z,7.1
2023-01-10T15:01:32.832Z,7.1
2023-01-10T15:04:32.879Z,7.1
2023-01-10T15:07:32.750Z,7.1
2023-01-10T15:10:32.771Z,7.1
2023-01-10T15:13:32.768Z,7.1
2023-01-10T15:16:32.794Z,7.1
2023-01-10T15:19:32.792Z,7
2023-01-10T15:22:32.791Z,7
2023-01-10T15:25:32.801Z,7
2023-01-10T15:28:32.808Z,6.9
2023-01-10T15:31:32.906Z,6.9
2023-01-10T15:34:32.843Z,6.8
2023-01-10T15:37:32.830Z,6.8
2023-01-10T15:40:32.838Z,6.8
2023-01-10T15:43:32.848Z,6.8
2023-01-10T15:46:32.885Z,6.8
2023-01-10T15:49:32.856Z,6.8
2023-01-10T15:52:32.900Z,6.8
2023-01-10T15:55:32.864Z,6.7
2023-01-10T15:58:32.878Z,6.7
2023-01-10T16:01:33.026Z,6.6
2023-01-10T16:04:32.885Z,6.6
2023-01-10T16:07:32.905Z,6.5
2023-01-10T16:10:32.919Z,6.5
2023-01-10T16:13:32.909Z,6.4
2023-01-10T16:16:32.968Z,6.3
2023-01-10T16:19:32.934Z,6.2
2023-01-10T16:22:32.917Z,6.1
2023-01-10T16:25:32.943Z,6
2023-01-10T16:28:32.978Z,6
2023-01-10T16:31:32.962Z,5.9
2023-01-10T16:34:32.947Z,5.9
2023-01-10T16:37:32.947Z,5.8
2023-01-10T16:40:34.361Z,5.7
2023-01-10T16:43:32.950Z,5.7
2023-01-10T16:46:32.988Z,5.7
2023-01-10T16:49:32.955Z,5.7
2023-01-10T16:52:32.961Z,5.7
2023-01-10T16:55:32.963Z,5.7
2023-01-10T16:58:32.965Z,5.6
2023-01-10T17:01:33.073Z,5.6
2023-01-10T17:04:33.042Z,5.6
2023-01-10T17:07:32.978Z,5.6
2023-01-10T17:10:32.977Z,5.6
2023-01-10T17:13:32.976Z,5.6
2023-01-10T17:16:33.025Z,5.5
2023-01-10T17:19:32.995Z,5.5
2023-01-10T17:22:33.006Z,5.5
2023-01-10T17:25:32.979Z,5.5
2023-01-10T17:28:32.996Z,5.5
2023-01-10T17:31:33.058Z,5.5
2023-01-10T17:34:33.015Z,5.5
2023-01-10T17:37:33.019Z,5.5
2023-01-10T17:40:33.041Z,5.5
2023-01-10T17:43:33.033Z,5.5
2023-01-10T17:46:33.057Z,5.5
2023-01-10T17:49:33.053Z,5.5
2023-01-10T17:52:33.054Z,5.6
2023-01-10T17:55:33.057Z,5.5
2023-01-10T17:58:33.093Z,5.5
2023-01-10T18:01:33.161Z,5.5
2023-01-10T18:04:33.110Z,5.5
2023-01-10T18:07:33.099Z,5.4
2023-01-10T18:10:33.108Z,5.4
2023-01-10T18:13:33.125Z,5.4
2023-01-10T18:16:33.285Z,5.3
2023-01-10T18:19:33.177Z,5.3
2023-01-10T18:22:33.141Z,5.3
2023-01-10T18:25:33.150Z,5.3
2023-01-10T18:28:40.757Z,5.3
2023-01-10T18:31:33.172Z,5.3
2023-01-10T18:34:33.309Z,5.4
2023-01-10T18:37:33.188Z,5.4
2023-01-10T18:40:33.189Z,5.4
2023-01-10T18:43:33.197Z,5.4
2023-01-10T18:46:33.255Z,5.4
2023-01-10T18:49:33.232Z,5.4
2023-01-10T18:52:33.256Z,5.5
2023-01-10T18:55:33.253Z,5.5
2023-01-10T18:58:33.273Z,5.5
2023-01-10T19:01:34.715Z,5.5
2023-01-10T19:04:33.283Z,5.6
2023-01-10T19:07:33.273Z,5.6
2023-01-10T19:10:49.979Z,5.6
2023-01-10T19:13:33.283Z,5.6
2023-01-10T19:16:33.301Z,5.6
2023-01-10T19:19:33.313Z,5.6
2023-01-10T19:22:33.310Z,5.6
2023-01-10T19:25:33.326Z,5.6
2023-01-10T19:28:33.358Z,5.7
2023-01-10T19:31:33.377Z,5.7
2023-01-10T19:34:33.351Z,5.7
2023-01-10T19:37:33.349Z,5.7
2023-01-10T19:40:33.356Z,5.7
2023-01-10T19:43:33.361Z,5.8
2023-01-10T19:46:33.524Z,5.8
2023-01-10T19:49:34.141Z,5.8
2023-01-10T19:52:33.389Z,5.9
2023-01-10T19:55:33.405Z,5.9
2023-01-10T19:58:33.398Z,6
2023-01-10T20:01:33.438Z,6.1
2023-01-10T20:04:33.447Z,6.1
2023-01-10T20:07:33.429Z,6.1
2023-01-10T20:10:33.431Z,6.1
2023-01-10T20:13:33.438Z,6.1
2023-01-10T20:16:33.462Z,6.2
2023-01-10T20:19:33.460Z,6.1
2023-01-10T20:22:33.492Z,6.2
2023-01-10T20:25:33.469Z,6.2
2023-01-10T20:28:33.485Z,6.2
2023-01-10T20:31:33.558Z,6.2
2023-01-10T20:34:33.524Z,6.3
2023-01-10T20:37:33.515Z,6.2
2023-01-10T20:40:33.551Z,6.2
2023-01-10T20:43:33.546Z,6.2
2023-01-10T20:46:33.612Z,6.2
2023-01-10T20:49:33.593Z,6.3
2023-01-10T20:52:33.571Z,6.3
2023-01-10T20:55:33.605Z,6.3
2023-01-10T20:58:33.629Z,6.4
2023-01-10T21:01:35.322Z,6.4
2023-01-10T21:04:33.644Z,6.4
2023-01-10T21:07:33.644Z,6.4
2023-01-10T21:10:33.651Z,6.4
2023-01-10T21:13:33.667Z,6.3
2023-01-10T21:16:33.702Z,6.2
2023-01-10T21:19:33.703Z,6.1
2023-01-10T21:22:33.703Z,6
2023-01-10T21:25:33.712Z,6
2023-01-10T21:28:33.718Z,5.9
2023-01-10T21:31:33.735Z,5.8
2023-01-10T21:34:33.776Z,5.7
2023-01-10T21:37:33.756Z,5.7
2023-01-10T21:40:33.778Z,5.6
2023-01-10T21:43:33.792Z,5.5
2023-01-10T21:46:33.816Z,5.5
2023-01-10T21:49:33.811Z,5.4
2023-01-10T21:52:33.853Z,5.4
2023-01-10T21:55:33.833Z,5.4
2023-01-10T21:58:33.838Z,5.3
2023-01-10T22:01:33.851Z,5.3
2023-01-10T22:04:33.866Z,5.3
2023-01-10T22:07:33.860Z,5.2
2023-01-10T22:10:33.887Z,5.2
2023-01-10T22:13:33.870Z,5.2
2023-01-10T22:16:33.932Z,5.3
2023-01-10T22:19:33.895Z,5.3
2023-01-10T22:22:33.884Z,5.3
2023-01-10T22:25:33.887Z,5.3
2023-01-10T22:28:33.923Z,5.3
2023-01-10T22:31:33.989Z,5.3
2023-01-10T22:34:33.924Z,5.3
2023-01-10T22:37:33.915Z,5.3
2023-01-10T22:40:33.919Z,5.3
2023-01-10T22:43:33.923Z,5.4
2023-01-10T22:46:33.956Z,5.4
2023-01-10T22:49:33.945Z,5.4
2023-01-10T22:52:33.932Z,5.4
2023-01-10T22:55:33.937Z,5.4
2023-01-10T22:58:33.949Z,5.4
2023-01-10T23:01:33.946Z,5.4
2023-01-10T23:04:34.019Z,5.3
2023-01-10T23:07:33.961Z,5.3
2023-01-10T23:10:33.963Z,5.3
2023-01-10T23:13:33.981Z,5.3
2023-01-10T23:16:34.052Z,5.3
2023-01-10T23:19:33.994Z,5.3
2023-01-10T23:22:34.017Z,5.3
2023-01-10T23:25:33.993Z,5.3
2023-01-10T23:28:34.004Z,5.3
2023-01-10T23:31:34.047Z,5.3
2023-01-10T23:34:34.044Z,5.3
2023-01-10T23:37:34.058Z,5.3
2023-01-10T23:40:34.071Z,5.4
2023-01-10T23:43:34.038Z,5.3
2023-01-10T23:46:34.045Z,5.4
2023-01-10T23:49:34.082Z,5.4
2023-01-10T23:52:34.055Z,5.4
2023-01-10T23:55:34.041Z,5.4
2023-01-10T23:58:34.161Z,5.4
